createdAt,value
2018-05-03T00:00:47.809Z,100715.30
2018-05-03T00:03:15.988Z,100720.91
2018-05-03T00:05:44.162Z,100723.71
2018-05-03T00:08:12.318Z,100737.44
2018-05-03T00:10:40.491Z,100746.52
2018-05-03T00:13:08.677Z,100738.34
2018-05-03T00:15:37.041Z,100733.22
2018-05-03T00:18:05.212Z,100736.70
2018-05-03T00:20:33.391Z,100739.97
2018-05-03T00:23:01.585Z,100749.74
2018-05-03T00:25:29.789Z,100745.58
2018-05-03T00:27:57.931Z,100763.17
2018-05-03T00:30:26.103Z,100756.98
2018-05-03T00:32:54.273Z,100754.14
2018-05-03T00:35:22.476Z,100757.26
2018-05-03T00:37:50.636Z,100756.63
2018-05-03T00:40:18.813Z,100754.30
2018-05-03T00:42:46.963Z,100761.36
2018-05-03T00:45:15.142Z,100766.16
2018-05-03T00:47:43.316Z,100767.70
2018-05-03T00:50:11.469Z,100774.73
2018-05-03T00:52:39.663Z,100775.84
2018-05-03T00:55:07.855Z,100777.34
2018-05-03T00:57:36.055Z,100770.48
2018-05-03T01:00:04.204Z,100776.61
2018-05-03T01:02:32.366Z,100778.83
2018-05-03T01:05:00.524Z,100777.60
2018-05-03T01:07:28.699Z,100778.20
2018-05-03T01:09:57.179Z,100785.27
2018-05-03T01:12:25.350Z,100788.72
2018-05-03T01:14:53.543Z,100786.55
2018-05-03T01:17:21.690Z,100790.87
2018-05-03T01:19:49.858Z,100788.91
2018-05-03T01:22:18.021Z,100794.50
2018-05-03T01:24:46.225Z,100787.69
2018-05-03T01:27:14.384Z,100798.19
2018-05-03T01:29:42.553Z,100800.63
2018-05-03T01:32:10.744Z,100799.59
2018-05-03T01:34:38.902Z,100788.45
2018-05-03T01:37:07.074Z,100797.81
2018-05-03T01:39:35.570Z,100801.92
2018-05-03T01:42:03.774Z,100813.16
2018-05-03T01:44:31.922Z,100815.05
2018-05-03T01:47:02.551Z,100823.27
2018-05-03T01:49:30.723Z,100826.95
2018-05-03T01:51:58.905Z,100836.05
2018-05-03T01:54:27.337Z,100842.37
2018-05-03T01:56:55.484Z,100844.50
2018-05-03T01:59:23.650Z,100847.42
2018-05-03T02:01:51.830Z,100853.20
2018-05-03T02:04:19.984Z,100861.51
2018-05-03T02:06:48.205Z,100864.72
2018-05-03T02:09:16.333Z,100867.21
2018-05-03T02:11:45.329Z,100869.42
2018-05-03T02:14:13.503Z,100873.73
2018-05-03T02:16:41.676Z,100875.28
2018-05-03T02:19:10.172Z,100877.22
2018-05-03T02:21:38.313Z,100884.41
2018-05-03T02:24:06.489Z,100888.20
2018-05-03T02:26:34.639Z,100884.28
2018-05-03T02:29:02.831Z,100895.41
2018-05-03T02:31:30.985Z,100890.69
2018-05-03T02:33:59.137Z,100888.98
2018-05-03T02:36:27.337Z,100897.74
2018-05-03T02:38:55.522Z,100897.09
2018-05-03T02:41:23.707Z,100897.52
2018-05-03T02:43:52.698Z,100899.05
2018-05-03T02:46:20.881Z,100906.56
2018-05-03T02:48:49.059Z,100910.47
2018-05-03T02:51:17.222Z,100919.33
2018-05-03T02:53:45.394Z,100921.87
2018-05-03T02:56:13.585Z,100927.20
2018-05-03T02:59:26.663Z,100928.51
2018-05-03T03:02:13.968Z,100934.31
2018-05-03T03:05:42.073Z,100936.91
2018-05-03T03:08:29.508Z,100950.14
2018-05-03T03:11:22.768Z,100953.84
2018-05-03T03:14:16.599Z,100955.67
2018-05-03T03:17:40.378Z,100958.95
2018-05-03T03:20:47.431Z,100961.49
2018-05-03T03:24:11.473Z,100964.02
2018-05-03T03:27:40.347Z,100969.30
2018-05-03T03:31:37.081Z,100975.02
2018-05-03T03:34:05.858Z,100980.97
2018-05-03T03:37:17.715Z,100985.95
2018-05-03T03:40:25.378Z,100991.86
2018-05-03T03:43:05.313Z,100990.60
2018-05-03T03:45:33.561Z,100988.52
2018-05-03T03:48:01.623Z,100995.68
2018-05-03T03:50:29.792Z,100989.23
2018-05-03T03:52:57.963Z,100989.30
2018-05-03T03:55:26.142Z,100994.92
2018-05-03T03:57:54.511Z,101003.09
2018-05-03T04:00:22.653Z,101008.04
2018-05-03T04:02:50.823Z,101007.17
2018-05-03T04:05:18.987Z,101005.55
2018-05-03T04:07:47.165Z,101002.22
2018-05-03T04:10:15.335Z,101009.97
2018-05-03T04:12:43.522Z,101011.87
2018-05-03T04:15:11.716Z,101014.69
2018-05-03T04:18:17.497Z,101026.92
2018-05-03T04:21:41.626Z,101031.61
2018-05-03T04:24:49.953Z,101047.64
2018-05-03T04:27:18.156Z,101052.33
2018-05-03T04:29:46.318Z,101054.95
2018-05-03T04:32:14.495Z,101063.23
2018-05-03T04:34:42.655Z,101062.65
2018-05-03T04:37:10.850Z,101063.25
2018-05-03T04:39:39.020Z,101060.73
2018-05-03T04:42:07.198Z,101069.15
2018-05-03T04:44:35.376Z,101069.99
2018-05-03T04:47:03.633Z,101074.11
2018-05-03T04:49:31.700Z,101072.88
2018-05-03T04:51:59.879Z,101076.07
2018-05-03T04:54:28.047Z,101088.00
2018-05-03T04:56:56.219Z,101082.91
2018-05-03T04:59:24.394Z,101095.38
2018-05-03T05:01:52.568Z,101098.45
2018-05-03T05:04:20.719Z,101106.12
2018-05-03T05:06:48.891Z,101104.52
2018-05-03T05:09:17.025Z,101107.11
2018-05-03T05:11:45.179Z,101114.77
2018-05-03T05:14:13.353Z,101117.16
2018-05-03T05:16:41.508Z,101124.13
2018-05-03T05:19:09.705Z,101127.22
2018-05-03T05:21:37.840Z,101130.67
2018-05-03T05:24:06.089Z,101137.14
2018-05-03T05:26:34.212Z,101137.28
2018-05-03T05:29:02.700Z,101140.08
2018-05-03T05:31:30.879Z,101146.34
2018-05-03T05:33:59.049Z,101154.84
2018-05-03T05:36:27.224Z,101159.20
2018-05-03T05:38:55.548Z,101159.52
2018-05-03T05:41:23.577Z,101163.38
2018-05-03T05:43:51.928Z,101168.18
2018-05-03T05:46:20.128Z,101175.70
2018-05-03T05:48:48.293Z,101173.84
2018-05-03T05:51:16.521Z,101173.09
2018-05-03T05:53:44.648Z,101168.92
2018-05-03T05:56:12.816Z,101173.09
2018-05-03T05:58:40.969Z,101178.17
2018-05-03T06:01:09.160Z,101177.67
2018-05-03T06:03:37.296Z,101191.61
2018-05-03T06:06:05.473Z,101194.81
2018-05-03T06:08:33.635Z,101198.11
2018-05-03T06:11:01.817Z,101196.69
2018-05-03T06:13:29.989Z,101196.41
2018-05-03T06:15:58.185Z,101193.79
2018-05-03T06:18:26.394Z,101200.23
2018-05-03T06:20:54.570Z,101202.50
2018-05-03T06:23:22.721Z,101207.88
2018-05-03T06:25:50.902Z,101207.30
2018-05-03T06:28:19.082Z,101206.00
2018-05-03T06:30:47.268Z,101201.27
2018-05-03T06:33:15.487Z,101200.97
2018-05-03T06:35:43.675Z,101205.05
2018-05-03T06:38:11.861Z,101212.50
2018-05-03T06:40:40.616Z,101207.77
2018-05-03T06:43:08.823Z,101208.77
2018-05-03T06:45:36.997Z,101206.69
2018-05-03T06:48:05.178Z,101210.04
2018-05-03T06:50:33.608Z,101210.70
2018-05-03T06:53:01.874Z,101207.78
2018-05-03T06:55:29.986Z,101206.44
2018-05-03T06:57:58.527Z,101206.37
2018-05-03T07:00:26.693Z,101203.91
2018-05-03T07:02:54.863Z,101220.24
2018-05-03T07:05:23.029Z,101224.92
2018-05-03T07:07:51.199Z,101215.84
2018-05-03T07:10:19.378Z,101220.67
2018-05-03T07:12:47.562Z,101217.00
2018-05-03T07:15:15.722Z,101227.53
2018-05-03T07:17:45.587Z,101219.00
2018-05-03T07:20:13.956Z,101225.93
2018-05-03T07:22:42.377Z,101232.68
2018-05-03T07:25:13.082Z,101228.44
2018-05-03T07:27:39.271Z,101234.20
2018-05-03T07:30:07.569Z,101240.08
2018-05-03T07:32:35.856Z,101240.48
2018-05-03T07:35:04.328Z,101243.10
2018-05-03T07:37:32.463Z,101244.17
2018-05-03T07:40:01.049Z,101241.28
2018-05-03T07:42:32.218Z,101245.54
2018-05-03T07:45:00.435Z,101241.38
2018-05-03T07:47:28.622Z,101232.43
2018-05-03T07:49:56.808Z,101237.00
2018-05-03T07:52:24.962Z,101238.91
2018-05-03T07:54:53.133Z,101245.91
2018-05-03T07:57:21.517Z,101240.35
2018-05-03T07:59:49.695Z,101243.08
2018-05-03T08:02:17.864Z,101241.34
2018-05-03T08:04:46.064Z,101254.05
2018-05-03T08:07:14.223Z,101250.27
2018-05-03T08:09:42.402Z,101251.73
2018-05-03T08:12:10.559Z,101254.73
2018-05-03T08:14:38.787Z,101254.63
2018-05-03T08:17:06.981Z,101254.99
2018-05-03T08:19:35.375Z,101257.46
2018-05-03T08:22:03.573Z,101261.46
2018-05-03T08:24:31.742Z,101255.70
2018-05-03T08:27:00.303Z,101253.02
2018-05-03T08:29:28.464Z,101253.75
2018-05-03T08:31:56.633Z,101255.09
2018-05-03T08:34:24.827Z,101259.92
2018-05-03T08:36:53.008Z,101254.11
2018-05-03T08:39:21.192Z,101263.22
2018-05-03T08:41:49.383Z,101271.29
2018-05-03T08:44:17.524Z,101261.27
2018-05-03T08:46:45.698Z,101266.00
2018-05-03T08:49:13.888Z,101258.76
2018-05-03T08:51:42.039Z,101261.47
2018-05-03T08:54:10.220Z,101267.70
2018-05-03T08:56:38.388Z,101266.26
2018-05-03T08:59:07.130Z,101274.23
2018-05-03T09:01:35.395Z,101273.73
2018-05-03T09:04:03.557Z,101279.08
2018-05-03T09:06:31.725Z,101280.27
2018-05-03T09:08:59.990Z,101286.34
2018-05-03T09:11:28.179Z,101285.90
2018-05-03T09:13:56.484Z,101291.32
2018-05-03T09:16:24.685Z,101292.14
2018-05-03T09:18:54.887Z,101286.15
2018-05-03T09:21:23.017Z,101294.80
2018-05-03T09:23:51.309Z,101294.18
2018-05-03T09:26:19.506Z,101298.86
2018-05-03T09:28:47.733Z,101298.78
2018-05-03T09:31:15.891Z,101300.09
2018-05-03T09:33:44.053Z,101301.23
2018-05-03T09:36:12.271Z,101313.34
2018-05-03T09:38:40.493Z,101315.68
2018-05-03T09:41:08.722Z,101316.30
2018-05-03T09:43:37.925Z,101314.45
2018-05-03T09:46:08.962Z,101317.21
2018-05-03T09:48:37.119Z,101317.69
2018-05-03T09:51:05.310Z,101317.23
2018-05-03T09:53:33.547Z,101319.98
2018-05-03T09:56:01.740Z,101329.16
2018-05-03T09:58:29.915Z,101326.75
2018-05-03T10:00:58.110Z,101332.23
2018-05-03T10:03:26.315Z,101329.20
2018-05-03T10:05:54.532Z,101338.00
2018-05-03T10:08:25.903Z,101326.14
2018-05-03T10:10:54.106Z,101338.42
2018-05-03T10:13:22.313Z,101344.20
2018-05-03T10:15:50.472Z,101349.44
2018-05-03T10:18:18.661Z,101340.09
2018-05-03T10:20:46.846Z,101350.78
2018-05-03T10:23:15.059Z,101347.36
2018-05-03T10:25:43.254Z,101346.20
2018-05-03T10:28:11.487Z,101343.27
2018-05-03T10:30:41.327Z,101348.38
2018-05-03T10:33:09.531Z,101342.23
2018-05-03T10:35:37.793Z,101352.92
2018-05-03T10:38:05.914Z,101353.73
2018-05-03T10:40:34.699Z,101353.08
2018-05-03T10:43:03.015Z,101367.76
2018-05-03T10:45:31.195Z,101360.01
2018-05-03T10:48:01.947Z,101363.95
2018-05-03T10:50:30.135Z,101372.77
2018-05-03T10:52:58.353Z,101370.35
2018-05-03T10:55:27.133Z,101365.13
2018-05-03T10:57:55.359Z,101358.19
2018-05-03T11:00:23.555Z,101364.95
2018-05-03T11:02:51.783Z,101369.61
2018-05-03T11:05:20.522Z,101357.55
2018-05-03T11:07:48.520Z,101361.14
2018-05-03T11:10:16.727Z,101366.91
2018-05-03T11:12:44.929Z,101369.89
2018-05-03T11:15:13.655Z,101374.38
2018-05-03T11:17:41.838Z,101379.48
2018-05-03T11:20:10.038Z,101373.14
2018-05-03T11:22:38.310Z,101378.53
2018-05-03T11:25:06.511Z,101379.79
2018-05-03T11:27:34.674Z,101375.99
2018-05-03T11:30:02.927Z,101377.26
2018-05-03T11:32:31.096Z,101380.95
2018-05-03T11:34:59.314Z,101374.32
2018-05-03T11:37:27.543Z,101376.71
2018-05-03T11:39:55.715Z,101370.09
2018-05-03T11:42:23.903Z,101374.23
2018-05-03T11:44:52.095Z,101371.05
2018-05-03T11:47:20.260Z,101372.84
2018-05-03T11:49:48.576Z,101370.13
2018-05-03T11:52:16.713Z,101376.47
2018-05-03T11:54:44.885Z,101376.09
2018-05-03T11:57:13.080Z,101376.84
2018-05-03T11:59:41.340Z,101378.74
2018-05-03T12:02:09.689Z,101371.33
2018-05-03T12:04:37.834Z,101384.91
2018-05-03T12:07:06.042Z,101382.61
2018-05-03T12:09:34.219Z,101386.67
2018-05-03T12:12:02.410Z,101380.10
2018-05-03T12:14:30.596Z,101371.77
2018-05-03T12:16:58.828Z,101376.24
2018-05-03T12:19:27.063Z,101383.93
2018-05-03T12:21:55.202Z,101378.09
2018-05-03T12:24:23.469Z,101380.75
2018-05-03T12:26:51.627Z,101385.75
2018-05-03T12:29:19.906Z,101382.76
2018-05-03T12:31:48.120Z,101387.19
2018-05-03T12:34:16.302Z,101386.34
2018-05-03T12:36:44.467Z,101381.42
2018-05-03T12:39:12.668Z,101380.31
2018-05-03T12:41:40.847Z,101381.16
2018-05-03T12:44:09.069Z,101385.95
2018-05-03T12:46:37.242Z,101387.02
2018-05-03T12:49:05.461Z,101388.10
2018-05-03T12:51:33.626Z,101382.44
2018-05-03T12:54:01.781Z,101384.16
2018-05-03T12:56:29.942Z,101390.67
2018-05-03T12:58:58.123Z,101401.03
2018-05-03T13:01:26.693Z,101396.30
2018-05-03T13:03:54.888Z,101397.31
2018-05-03T13:06:23.088Z,101398.20
2018-05-03T13:08:51.297Z,101400.67
2018-05-03T13:11:19.492Z,101403.12
2018-05-03T13:13:47.711Z,101402.36
2018-05-03T13:16:15.917Z,101402.40
2018-05-03T13:18:44.112Z,101405.74
2018-05-03T13:21:12.377Z,101409.67
2018-05-03T13:23:40.574Z,101411.69
2018-05-03T13:26:08.744Z,101399.06
2018-05-03T13:28:36.927Z,101399.87
2018-05-03T13:31:05.111Z,101397.55
2018-05-03T13:33:33.343Z,101403.61
2018-05-03T13:36:01.492Z,101412.77
2018-05-03T13:38:29.650Z,101410.47
2018-05-03T13:40:57.924Z,101417.59
2018-05-03T13:43:26.046Z,101422.84
2018-05-03T13:45:54.244Z,101420.27
2018-05-03T13:48:22.436Z,101420.14
2018-05-03T13:50:50.611Z,101417.73
2018-05-03T13:53:18.943Z,101415.64
2018-05-03T13:55:47.049Z,101414.41
2018-05-03T13:58:15.219Z,101415.17
2018-05-03T14:00:43.512Z,101410.72
2018-05-03T14:03:11.690Z,101410.53
2018-05-03T14:05:39.874Z,101411.31
2018-05-03T14:08:08.043Z,101417.73
2018-05-03T14:10:36.311Z,101407.25
2018-05-03T14:13:04.542Z,101413.55
2018-05-03T14:15:32.705Z,101408.10
2018-05-03T14:18:00.891Z,101412.98
2018-05-03T14:20:29.173Z,101417.44
2018-05-03T14:22:57.264Z,101424.03
2018-05-03T14:25:25.434Z,101415.45
2018-05-03T14:27:53.612Z,101414.17
2018-05-03T14:30:21.787Z,101416.77
2018-05-03T14:32:49.972Z,101419.75
2018-05-03T14:35:18.151Z,101416.13
2018-05-03T14:37:46.358Z,101408.62
2018-05-03T14:40:14.531Z,101416.59
2018-05-03T14:42:42.747Z,101405.19
2018-05-03T14:45:10.925Z,101412.88
2018-05-03T14:47:39.102Z,101413.37
2018-05-03T14:50:07.304Z,101422.07
2018-05-03T14:52:35.461Z,101415.65
2018-05-03T14:55:03.629Z,101418.84
2018-05-03T14:57:31.826Z,101421.88
2018-05-03T14:59:59.973Z,101431.29
2018-05-03T15:02:28.140Z,101421.70
2018-05-03T15:04:56.317Z,101416.52
2018-05-03T15:07:24.505Z,101422.19
2018-05-03T15:09:52.713Z,101423.11
2018-05-03T15:12:21.633Z,101424.30
2018-05-03T15:14:49.843Z,101418.15
2018-05-03T15:17:18.007Z,101423.42
2018-05-03T15:19:46.178Z,101416.91
2018-05-03T15:22:14.339Z,101426.48
2018-05-03T15:24:42.680Z,101415.50
2018-05-03T15:27:10.848Z,101415.61
2018-05-03T15:29:39.021Z,101421.63
2018-05-03T15:32:07.222Z,101420.66
2018-05-03T15:34:35.405Z,101426.70
2018-05-03T15:37:03.588Z,101425.83
2018-05-03T15:39:31.764Z,101427.02
2018-05-03T15:41:59.932Z,101430.13
2018-05-03T15:44:28.111Z,101428.70
2018-05-03T15:46:56.300Z,101437.75
2018-05-03T15:49:24.462Z,101433.66
2018-05-03T15:51:52.635Z,101436.05
2018-05-03T15:54:20.792Z,101439.37
2018-05-03T15:56:48.988Z,101437.20
2018-05-03T15:59:17.170Z,101439.86
2018-05-03T16:01:45.353Z,101438.09
2018-05-03T16:04:13.501Z,101441.80
2018-05-03T16:06:41.678Z,101435.68
2018-05-03T16:09:09.840Z,101441.81
2018-05-03T16:11:38.022Z,101445.62
2018-05-03T16:14:06.218Z,101442.75
2018-05-03T16:16:34.375Z,101452.33
2018-05-03T16:19:02.618Z,101459.70
2018-05-03T16:21:30.742Z,101453.52
2018-05-03T16:23:58.916Z,101454.55
2018-05-03T16:26:27.090Z,101463.22
2018-05-03T16:28:55.261Z,101456.40
2018-05-03T16:31:23.422Z,101459.55
2018-05-03T16:33:51.616Z,101465.75
2018-05-03T16:36:19.809Z,101459.31
2018-05-03T16:38:47.959Z,101460.72
2018-05-03T16:41:16.154Z,101459.36
2018-05-03T16:43:44.334Z,101459.61
2018-05-03T16:46:12.485Z,101461.87
2018-05-03T16:48:40.728Z,101463.66
2018-05-03T16:51:08.910Z,101470.66
2018-05-03T16:53:37.108Z,101474.94
2018-05-03T16:56:05.272Z,101476.42
2018-05-03T16:58:33.442Z,101476.84
2018-05-03T17:01:01.632Z,101479.46
2018-05-03T17:03:29.783Z,101480.94
2018-05-03T17:05:57.975Z,101487.86
2018-05-03T17:08:26.256Z,101483.58
2018-05-03T17:10:54.439Z,101485.41
2018-05-03T17:13:22.584Z,101491.48
2018-05-03T17:15:50.789Z,101489.66
2018-05-03T17:18:18.988Z,101495.84
2018-05-03T17:20:47.161Z,101498.13
2018-05-03T17:23:15.337Z,101499.22
2018-05-03T17:25:43.509Z,101500.91
2018-05-03T17:28:11.711Z,101508.09
2018-05-03T17:30:39.888Z,101516.42
2018-05-03T17:33:08.060Z,101525.50
2018-05-03T17:35:36.231Z,101525.26
2018-05-03T17:38:04.430Z,101530.58
2018-05-03T17:40:32.635Z,101529.05
2018-05-03T17:43:00.873Z,101535.16
2018-05-03T17:45:29.064Z,101535.23
2018-05-03T17:47:57.246Z,101537.70
2018-05-03T17:50:25.445Z,101545.13
2018-05-03T17:52:53.621Z,101547.86
2018-05-03T17:55:21.796Z,101554.90
2018-05-03T17:57:49.970Z,101564.28
2018-05-03T18:00:18.131Z,101563.66
2018-05-03T18:02:46.362Z,101570.69
2018-05-03T18:05:14.564Z,101577.01
2018-05-03T18:07:42.719Z,101580.48
2018-05-03T18:10:10.880Z,101588.33
2018-05-03T18:12:39.091Z,101596.91
2018-05-03T18:15:07.263Z,101604.55
2018-05-03T18:17:35.459Z,101605.73
2018-05-03T18:20:03.674Z,101613.51
2018-05-03T18:22:31.886Z,101607.46
2018-05-03T18:25:00.066Z,101615.52
2018-05-03T18:27:28.246Z,101623.01
2018-05-03T18:29:56.401Z,101621.34
2018-05-03T18:32:24.574Z,101627.20
2018-05-03T18:34:52.732Z,101624.38
2018-05-03T18:37:20.899Z,101620.13
2018-05-03T18:39:49.066Z,101626.45
2018-05-03T18:42:17.197Z,101634.48
2018-05-03T18:44:45.404Z,101631.95
2018-05-03T18:47:13.564Z,101639.95
2018-05-03T18:49:41.818Z,101644.33
2018-05-03T18:52:10.005Z,101644.30
2018-05-03T18:54:38.148Z,101651.63
2018-05-03T18:57:06.234Z,101656.33
2018-05-03T18:59:34.456Z,101654.48
2018-05-03T19:02:02.573Z,101655.70
2018-05-03T19:04:30.737Z,101661.25
2018-05-03T19:06:58.933Z,101663.14
2018-05-03T19:09:27.123Z,101658.91
2018-05-03T19:11:55.484Z,101659.22
2018-05-03T19:14:23.535Z,101668.84
2018-05-03T19:16:51.732Z,101675.70
2018-05-03T19:19:19.896Z,101674.29
2018-05-03T19:21:48.085Z,101679.86
2018-05-03T19:24:16.300Z,101685.00
2018-05-03T19:26:44.481Z,101685.08
2018-05-03T19:29:12.648Z,101687.75
2018-05-03T19:31:40.832Z,101692.85
2018-05-03T19:34:09.005Z,101700.44
2018-05-03T19:36:37.192Z,101705.30
2018-05-03T19:39:05.689Z,101712.94
2018-05-03T19:41:33.824Z,101720.88
2018-05-03T19:44:01.968Z,101721.70
2018-05-03T19:46:30.142Z,101723.09
2018-05-03T19:48:58.318Z,101719.90
2018-05-03T19:51:26.519Z,101729.36
2018-05-03T19:53:54.708Z,101722.27
2018-05-03T19:56:22.898Z,101718.88
2018-05-03T19:58:51.097Z,101719.45
2018-05-03T20:01:19.242Z,101721.84
2018-05-03T20:03:47.446Z,101717.23
2018-05-03T20:06:15.602Z,101726.58
2018-05-03T20:08:43.802Z,101732.70
2018-05-03T20:11:11.956Z,101730.28
2018-05-03T20:13:40.140Z,101735.89
2018-05-03T20:16:08.318Z,101736.20
2018-05-03T20:18:36.498Z,101734.33
2018-05-03T20:21:04.694Z,101732.54
2018-05-03T20:23:32.860Z,101730.91
2018-05-03T20:26:01.022Z,101737.00
2018-05-03T20:28:29.164Z,101740.65
2018-05-03T20:30:57.354Z,101738.48
2018-05-03T20:33:25.548Z,101737.69
2018-05-03T20:35:53.727Z,101737.12
2018-05-03T20:38:21.922Z,101733.76
2018-05-03T20:40:50.092Z,101734.31
2018-05-03T20:43:18.270Z,101733.14
2018-05-03T20:45:46.435Z,101732.48
2018-05-03T20:48:14.612Z,101735.78
2018-05-03T20:50:42.800Z,101737.62
2018-05-03T20:53:10.973Z,101734.55
2018-05-03T20:55:39.166Z,101725.72
2018-05-03T20:58:07.305Z,101731.29
2018-05-03T21:00:35.467Z,101733.92
2018-05-03T21:03:03.655Z,101740.39
2018-05-03T21:05:31.809Z,101739.09
2018-05-03T21:07:59.986Z,101740.44
2018-05-03T21:10:28.150Z,101741.31
2018-05-03T21:12:56.342Z,101739.50
2018-05-03T21:15:24.506Z,101733.45
2018-05-03T21:17:52.710Z,101737.04
2018-05-03T21:20:20.969Z,101740.86
2018-05-03T21:22:49.133Z,101745.16
2018-05-03T21:25:17.449Z,101745.22
2018-05-03T21:27:45.634Z,101746.37
2018-05-03T21:30:13.832Z,101744.00
2018-05-03T21:32:42.006Z,101738.52
2018-05-03T21:35:10.163Z,101743.05
2018-05-03T21:37:38.335Z,101742.00
2018-05-03T21:40:06.534Z,101739.95
2018-05-03T21:42:34.706Z,101742.60
2018-05-03T21:45:02.882Z,101744.62
2018-05-03T21:47:31.043Z,101746.58
2018-05-03T21:49:59.225Z,101743.91
2018-05-03T21:52:27.415Z,101747.23
2018-05-03T21:54:55.559Z,101746.27
2018-05-03T21:57:23.741Z,101746.25
2018-05-03T21:59:51.924Z,101743.77
2018-05-03T22:02:20.062Z,101750.84
2018-05-03T22:04:48.244Z,101748.58
2018-05-03T22:07:16.415Z,101754.00
2018-05-03T22:09:44.601Z,101746.36
2018-05-03T22:12:12.774Z,101750.36
2018-05-03T22:14:40.930Z,101755.45
2018-05-03T22:17:09.122Z,101757.02
2018-05-03T22:19:37.295Z,101756.10
2018-05-03T22:22:05.477Z,101767.19
2018-05-03T22:24:33.646Z,101761.17
2018-05-03T22:27:01.962Z,101759.94
2018-05-03T22:29:30.165Z,101765.08
2018-05-03T22:31:58.370Z,101765.38
2018-05-03T22:34:26.520Z,101770.20
2018-05-03T22:36:54.716Z,101774.91
2018-05-03T22:39:22.898Z,101768.03
2018-05-03T22:41:51.078Z,101776.86
2018-05-03T22:44:19.243Z,101772.55
2018-05-03T22:46:47.425Z,101780.62
2018-05-03T22:49:15.615Z,101785.03
2018-05-03T22:51:43.814Z,101781.41
2018-05-03T22:54:12.015Z,101787.92
2018-05-03T22:56:40.210Z,101779.54
2018-05-03T22:59:08.409Z,101781.30
2018-05-03T23:01:36.598Z,101777.67
2018-05-03T23:04:04.810Z,101783.77
2018-05-03T23:06:32.956Z,101781.06
2018-05-03T23:09:01.129Z,101776.37
2018-05-03T23:11:29.335Z,101785.66
2018-05-03T23:13:57.484Z,101782.43
2018-05-03T23:16:25.695Z,101780.77
2018-05-03T23:18:53.856Z,101774.81
2018-05-03T23:21:22.064Z,101767.47
2018-05-03T23:23:50.285Z,101770.77
2018-05-03T23:26:18.459Z,101773.31
2018-05-03T23:28:46.875Z,101768.05
2018-05-03T23:31:15.052Z,101761.44
2018-05-03T23:33:43.215Z,101766.55
2018-05-03T23:36:11.361Z,101764.06
2018-05-03T23:38:39.568Z,101768.50
2018-05-03T23:41:07.744Z,101777.43
2018-05-03T23:43:35.912Z,101774.17
2018-05-03T23:46:04.123Z,101782.67
2018-05-03T23:48:32.278Z,101780.67
2018-05-03T23:51:00.460Z,101781.00
2018-05-03T23:53:28.646Z,101782.03
2018-05-03T23:55:56.803Z,101783.70
2018-05-03T23:58:24.979Z,101782.19
